sensor_id;sensor_type;location;lat;lon;timestamp;P1;durP1;ratioP1;P2;durP2;ratioP2
3217;SDS011;1621;49.702;8.618;2023-05-07T00:02:03;6.90;;;2.70;;
3217;SDS011;1621;49.702;8.618;2023-05-07T00:04:29;9.70;;;2.40;;
3217;SDS011;1621;49.702;8.618;2023-05-07T00:07:00;3.97;;;2.17;;
3217;SDS011;1621;49.702;8.618;2023-05-07T00:09:27;5.07;;;1.90;;
3217;SDS011;1621;49.702;8.618;2023-05-07T00:11:53;4.33;;;2.13;;
3217;SDS011;1621;49.702;8.618;2023-05-07T00:14:19;3.33;;;1.97;;
3217;SDS011;1621;49.702;8.618;2023-05-07T00:16:47;3.80;;;2.03;;
3217;SDS011;1621;49.702;8.618;2023-05-07T00:19:13;3.83;;;2.50;;
3217;SDS011;1621;49.702;8.618;2023-05-07T00:21:39;4.67;;;1.80;;
3217;SDS011;1621;49.702;8.618;2023-05-07T00:24:06;6.27;;;2.50;;
3217;SDS011;1621;49.702;8.618;2023-05-07T00:26:32;3.73;;;2.30;;
3217;SDS011;1621;49.702;8.618;2023-05-07T00:28:58;4.30;;;2.30;;
3217;SDS011;1621;49.702;8.618;2023-05-07T00:31:25;4.13;;;2.10;;
3217;SDS011;1621;49.702;8.618;2023-05-07T00:33:52;3.13;;;2.13;;
3217;SDS011;1621;49.702;8.618;2023-05-07T00:36:18;3.93;;;2.13;;
3217;SDS011;1621;49.702;8.618;2023-05-07T00:38:45;3.57;;;1.93;;
3217;SDS011;1621;49.702;8.618;2023-05-07T00:41:11;4.70;;;2.97;;
3217;SDS011;1621;49.702;8.618;2023-05-07T00:43:37;5.63;;;2.30;;
3217;SDS011;1621;49.702;8.618;2023-05-07T00:46:03;5.47;;;2.37;;
3217;SDS011;1621;49.702;8.618;2023-05-07T00:48:30;3.83;;;2.07;;
3217;SDS011;1621;49.702;8.618;2023-05-07T00:50:58;4.10;;;2.10;;
3217;SDS011;1621;49.702;8.618;2023-05-07T00:53:24;8.43;;;2.40;;
3217;SDS011;1621;49.702;8.618;2023-05-07T00:55:51;6.13;;;2.40;;
3217;SDS011;1621;49.702;8.618;2023-05-07T00:58:18;4.30;;;2.50;;
3217;SDS011;1621;49.702;8.618;2023-05-07T01:00:45;4.13;;;2.20;;
3217;SDS011;1621;49.702;8.618;2023-05-07T01:03:11;5.30;;;2.27;;
3217;SDS011;1621;49.702;8.618;2023-05-07T01:05:38;3.17;;;2.17;;
3217;SDS011;1621;49.702;8.618;2023-05-07T01:08:05;3.80;;;2.00;;
3217;SDS011;1621;49.702;8.618;2023-05-07T01:10:32;3.27;;;2.20;;
3217;SDS011;1621;49.702;8.618;2023-05-07T01:12:58;5.10;;;2.40;;
3217;SDS011;1621;49.702;8.618;2023-05-07T01:15:25;3.30;;;2.20;;
3217;SDS011;1621;49.702;8.618;2023-05-07T01:17:51;3.10;;;2.10;;
3217;SDS011;1621;49.702;8.618;2023-05-07T01:20:17;5.63;;;2.17;;
3217;SDS011;1621;49.702;8.618;2023-05-07T01:22:45;8.30;;;2.73;;
3217;SDS011;1621;49.702;8.618;2023-05-07T01:25:12;4.00;;;2.50;;
3217;SDS011;1621;49.702;8.618;2023-05-07T01:27:41;3.97;;;2.43;;
3217;SDS011;1621;49.702;8.618;2023-05-07T01:30:07;6.53;;;2.20;;
3217;SDS011;1621;49.702;8.618;2023-05-07T01:32:35;5.07;;;2.73;;
3217;SDS011;1621;49.702;8.618;2023-05-07T01:35:05;3.70;;;2.43;;
3217;SDS011;1621;49.702;8.618;2023-05-07T01:37:32;3.73;;;2.10;;
3217;SDS011;1621;49.702;8.618;2023-05-07T01:39:59;4.50;;;2.40;;
3217;SDS011;1621;49.702;8.618;2023-05-07T01:42:27;5.40;;;2.80;;
3217;SDS011;1621;49.702;8.618;2023-05-07T01:44:54;6.83;;;2.17;;
3217;SDS011;1621;49.702;8.618;2023-05-07T01:47:20;4.63;;;2.50;;
3217;SDS011;1621;49.702;8.618;2023-05-07T01:49:47;3.43;;;2.17;;
3217;SDS011;1621;49.702;8.618;2023-05-07T01:52:13;9.13;;;3.10;;
3217;SDS011;1621;49.702;8.618;2023-05-07T01:54:40;5.73;;;2.90;;
3217;SDS011;1621;49.702;8.618;2023-05-07T01:57:07;4.27;;;2.30;;
3217;SDS011;1621;49.702;8.618;2023-05-07T01:59:34;5.13;;;2.50;;
3217;SDS011;1621;49.702;8.618;2023-05-07T02:02:00;4.53;;;2.80;;
3217;SDS011;1621;49.702;8.618;2023-05-07T02:04:26;5.13;;;3.23;;
3217;SDS011;1621;49.702;8.618;2023-05-07T02:06:52;4.10;;;2.70;;
3217;SDS011;1621;49.702;8.618;2023-05-07T02:09:19;3.93;;;2.70;;
3217;SDS011;1621;49.702;8.618;2023-05-07T02:11:45;3.57;;;2.40;;
3217;SDS011;1621;49.702;8.618;2023-05-07T02:14:13;4.40;;;2.73;;
3217;SDS011;1621;49.702;8.618;2023-05-07T02:16:40;5.70;;;3.00;;
3217;SDS011;1621;49.702;8.618;2023-05-07T02:19:06;6.43;;;3.00;;
3217;SDS011;1621;49.702;8.618;2023-05-07T02:21:32;5.27;;;2.70;;
3217;SDS011;1621;49.702;8.618;2023-05-07T02:23:59;9.07;;;3.53;;
3217;SDS011;1621;49.702;8.618;2023-05-07T02:26:25;4.50;;;3.03;;
3217;SDS011;1621;49.702;8.618;2023-05-07T02:28:51;3.90;;;2.77;;
3217;SDS011;1621;49.702;8.618;2023-05-07T02:31:20;4.90;;;2.97;;
3217;SDS011;1621;49.702;8.618;2023-05-07T02:33:46;4.03;;;2.70;;
3217;SDS011;1621;49.702;8.618;2023-05-07T02:36:12;5.30;;;2.60;;
3217;SDS011;1621;49.702;8.618;2023-05-07T02:38:39;4.27;;;2.67;;
3217;SDS011;1621;49.702;8.618;2023-05-07T02:41:06;7.17;;;2.87;;
3217;SDS011;1621;49.702;8.618;2023-05-07T02:43:32;4.93;;;3.23;;
3217;SDS011;1621;49.702;8.618;2023-05-07T02:46:02;4.90;;;3.00;;
3217;SDS011;1621;49.702;8.618;2023-05-07T02:48:30;6.27;;;3.80;;
3217;SDS011;1621;49.702;8.618;2023-05-07T02:50:56;5.57;;;3.13;;
3217;SDS011;1621;49.702;8.618;2023-05-07T02:53:22;3.83;;;2.50;;
3217;SDS011;1621;49.702;8.618;2023-05-07T02:55:50;8.20;;;3.23;;
3217;SDS011;1621;49.702;8.618;2023-05-07T02:58:17;4.07;;;2.87;;
3217;SDS011;1621;49.702;8.618;2023-05-07T03:00:43;5.83;;;3.90;;
3217;SDS011;1621;49.702;8.618;2023-05-07T03:03:09;4.73;;;3.23;;
3217;SDS011;1621;49.702;8.618;2023-05-07T03:05:37;5.87;;;3.50;;
3217;SDS011;1621;49.702;8.618;2023-05-07T03:08:03;4.37;;;3.00;;
3217;SDS011;1621;49.702;8.618;2023-05-07T03:10:29;4.40;;;2.97;;
3217;SDS011;1621;49.702;8.618;2023-05-07T03:12:56;7.13;;;2.83;;
3217;SDS011;1621;49.702;8.618;2023-05-07T03:15:22;7.00;;;3.60;;
3217;SDS011;1621;49.702;8.618;2023-05-07T03:17:48;4.73;;;3.00;;
3217;SDS011;1621;49.702;8.618;2023-05-07T03:20:15;4.10;;;2.70;;
3217;SDS011;1621;49.702;8.618;2023-05-07T03:22:42;4.43;;;2.60;;
3217;SDS011;1621;49.702;8.618;2023-05-07T03:25:09;5.37;;;2.57;;
3217;SDS011;1621;49.702;8.618;2023-05-07T03:27:35;5.10;;;2.10;;
3217;SDS011;1621;49.702;8.618;2023-05-07T03:30:01;7.27;;;2.57;;
3217;SDS011;1621;49.702;8.618;2023-05-07T03:32:28;5.83;;;2.20;;
3217;SDS011;1621;49.702;8.618;2023-05-07T03:34:54;6.10;;;2.33;;
3217;SDS011;1621;49.702;8.618;2023-05-07T03:37:21;7.83;;;2.50;;
3217;SDS011;1621;49.702;8.618;2023-05-07T03:39:49;5.20;;;2.20;;
3217;SDS011;1621;49.702;8.618;2023-05-07T03:42:15;5.00;;;2.40;;
3217;SDS011;1621;49.702;8.618;2023-05-07T03:44:41;3.13;;;2.00;;
3217;SDS011;1621;49.702;8.618;2023-05-07T03:47:07;3.67;;;2.00;;
3217;SDS011;1621;49.702;8.618;2023-05-07T03:49:35;4.07;;;2.10;;
3217;SDS011;1621;49.702;8.618;2023-05-07T03:52:01;6.03;;;1.93;;
3217;SDS011;1621;49.702;8.618;2023-05-07T03:54:27;3.93;;;2.33;;
3217;SDS011;1621;49.702;8.618;2023-05-07T03:56:55;3.00;;;1.83;;
3217;SDS011;1621;49.702;8.618;2023-05-07T03:59:21;4.73;;;2.10;;
3217;SDS011;1621;49.702;8.618;2023-05-07T04:01:47;3.60;;;1.93;;
3217;SDS011;1621;49.702;8.618;2023-05-07T04:04:15;2.77;;;1.60;;
3217;SDS011;1621;49.702;8.618;2023-05-07T04:06:41;3.70;;;2.23;;
3217;SDS011;1621;49.702;8.618;2023-05-07T04:09:07;4.73;;;1.97;;
3217;SDS011;1621;49.702;8.618;2023-05-07T04:11:34;4.30;;;2.17;;
3217;SDS011;1621;49.702;8.618;2023-05-07T04:14:02;3.47;;;1.80;;
3217;SDS011;1621;49.702;8.618;2023-05-07T04:16:28;3.00;;;1.83;;
3217;SDS011;1621;49.702;8.618;2023-05-07T04:18:55;3.50;;;2.00;;
3217;SDS011;1621;49.702;8.618;2023-05-07T04:21:21;3.90;;;2.63;;
3217;SDS011;1621;49.702;8.618;2023-05-07T04:23:47;3.97;;;2.40;;
3217;SDS011;1621;49.702;8.618;2023-05-07T04:26:14;4.47;;;2.63;;
3217;SDS011;1621;49.702;8.618;2023-05-07T04:28:40;3.00;;;1.97;;
3217;SDS011;1621;49.702;8.618;2023-05-07T04:31:07;4.70;;;2.63;;
3217;SDS011;1621;49.702;8.618;2023-05-07T04:33:34;4.73;;;2.57;;
3217;SDS011;1621;49.702;8.618;2023-05-07T04:36:01;5.93;;;3.27;;
3217;SDS011;1621;49.702;8.618;2023-05-07T04:38:28;3.60;;;2.30;;
3217;SDS011;1621;49.702;8.618;2023-05-07T04:40:55;3.93;;;2.67;;
3217;SDS011;1621;49.702;8.618;2023-05-07T04:43:22;4.90;;;2.63;;
3217;SDS011;1621;49.702;8.618;2023-05-07T04:45:49;4.17;;;2.77;;
3217;SDS011;1621;49.702;8.618;2023-05-07T04:48:17;5.23;;;2.80;;
3217;SDS011;1621;49.702;8.618;2023-05-07T04:50:44;4.23;;;2.80;;
3217;SDS011;1621;49.702;8.618;2023-05-07T04:53:10;8.30;;;3.47;;
3217;SDS011;1621;49.702;8.618;2023-05-07T04:55:37;9.27;;;3.30;;
3217;SDS011;1621;49.702;8.618;2023-05-07T04:58:03;5.03;;;3.60;;
3217;SDS011;1621;49.702;8.618;2023-05-07T05:00:29;4.43;;;3.20;;
3217;SDS011;1621;49.702;8.618;2023-05-07T05:02:56;4.70;;;3.00;;
3217;SDS011;1621;49.702;8.618;2023-05-07T05:05:23;9.10;;;4.37;;
3217;SDS011;1621;49.702;8.618;2023-05-07T05:07:49;6.17;;;4.07;;
3217;SDS011;1621;49.702;8.618;2023-05-07T05:10:16;4.77;;;3.50;;
3217;SDS011;1621;49.702;8.618;2023-05-07T05:12:43;5.10;;;3.73;;
3217;SDS011;1621;49.702;8.618;2023-05-07T05:15:11;5.07;;;3.60;;
3217;SDS011;1621;49.702;8.618;2023-05-07T05:17:37;4.40;;;3.17;;
3217;SDS011;1621;49.702;8.618;2023-05-07T05:20:04;5.87;;;3.50;;
3217;SDS011;1621;49.702;8.618;2023-05-07T05:22:32;6.80;;;3.13;;
3217;SDS011;1621;49.702;8.618;2023-05-07T05:24:58;4.97;;;3.60;;
3217;SDS011;1621;49.702;8.618;2023-05-07T05:27:25;6.27;;;4.23;;
3217;SDS011;1621;49.702;8.618;2023-05-07T05:29:52;5.60;;;3.60;;
3217;SDS011;1621;49.702;8.618;2023-05-07T05:32:18;6.17;;;4.00;;
3217;SDS011;1621;49.702;8.618;2023-05-07T05:34:44;4.70;;;3.83;;
3217;SDS011;1621;49.702;8.618;2023-05-07T05:37:10;5.43;;;4.10;;
3217;SDS011;1621;49.702;8.618;2023-05-07T05:39:38;6.63;;;3.40;;
3217;SDS011;1621;49.702;8.618;2023-05-07T05:42:04;5.70;;;3.63;;
3217;SDS011;1621;49.702;8.618;2023-05-07T05:44:30;5.80;;;3.70;;
3217;SDS011;1621;49.702;8.618;2023-05-07T05:46:57;4.53;;;3.50;;
3217;SDS011;1621;49.702;8.618;2023-05-07T05:49:24;6.67;;;3.70;;
3217;SDS011;1621;49.702;8.618;2023-05-07T05:51:50;5.60;;;3.40;;
3217;SDS011;1621;49.702;8.618;2023-05-07T05:54:16;5.43;;;3.63;;
3217;SDS011;1621;49.702;8.618;2023-05-07T05:56:44;5.57;;;3.40;;
3217;SDS011;1621;49.702;8.618;2023-05-07T05:59:10;7.03;;;3.53;;
3217;SDS011;1621;49.702;8.618;2023-05-07T06:01:37;5.83;;;3.70;;
3217;SDS011;1621;49.702;8.618;2023-05-07T06:04:03;5.80;;;3.77;;
3217;SDS011;1621;49.702;8.618;2023-05-07T06:06:29;7.90;;;3.73;;
3217;SDS011;1621;49.702;8.618;2023-05-07T06:08:56;8.40;;;4.67;;
3217;SDS011;1621;49.702;8.618;2023-05-07T06:11:22;5.43;;;3.60;;
3217;SDS011;1621;49.702;8.618;2023-05-07T06:13:50;5.63;;;3.63;;
3217;SDS011;1621;49.702;8.618;2023-05-07T06:16:16;4.73;;;3.30;;
3217;SDS011;1621;49.702;8.618;2023-05-07T06:18:42;5.17;;;3.43;;
3217;SDS011;1621;49.702;8.618;2023-05-07T06:21:10;5.13;;;3.07;;
3217;SDS011;1621;49.702;8.618;2023-05-07T06:23:36;5.13;;;3.70;;
3217;SDS011;1621;49.702;8.618;2023-05-07T06:26:02;4.60;;;3.63;;
3217;SDS011;1621;49.702;8.618;2023-05-07T06:28:29;5.57;;;3.33;;
3217;SDS011;1621;49.702;8.618;2023-05-07T06:31:11;4.93;;;3.77;;
3217;SDS011;1621;49.702;8.618;2023-05-07T06:33:38;5.67;;;3.70;;
3217;SDS011;1621;49.702;8.618;2023-05-07T06:36:04;5.70;;;3.33;;
3217;SDS011;1621;49.702;8.618;2023-05-07T06:38:31;6.20;;;4.10;;
3217;SDS011;1621;49.702;8.618;2023-05-07T06:40:57;7.53;;;3.77;;
3217;SDS011;1621;49.702;8.618;2023-05-07T06:43:23;6.20;;;3.90;;
3217;SDS011;1621;49.702;8.618;2023-05-07T06:45:50;5.30;;;3.30;;
3217;SDS011;1621;49.702;8.618;2023-05-07T06:48:17;4.80;;;3.20;;
3217;SDS011;1621;49.702;8.618;2023-05-07T06:50:43;7.20;;;3.60;;
3217;SDS011;1621;49.702;8.618;2023-05-07T06:53:10;7.67;;;4.00;;
3217;SDS011;1621;49.702;8.618;2023-05-07T06:55:36;6.07;;;4.10;;
3217;SDS011;1621;49.702;8.618;2023-05-07T06:58:03;5.77;;;3.73;;
3217;SDS011;1621;49.702;8.618;2023-05-07T07:00:29;5.83;;;4.30;;
3217;SDS011;1621;49.702;8.618;2023-05-07T07:02:56;5.27;;;3.43;;
3217;SDS011;1621;49.702;8.618;2023-05-07T07:05:23;5.23;;;4.07;;
3217;SDS011;1621;49.702;8.618;2023-05-07T07:07:50;5.43;;;3.47;;
3217;SDS011;1621;49.702;8.618;2023-05-07T07:10:17;5.27;;;3.70;;
3217;SDS011;1621;49.702;8.618;2023-05-07T07:12:44;9.50;;;3.57;;
3217;SDS011;1621;49.702;8.618;2023-05-07T07:15:10;4.90;;;3.57;;
3217;SDS011;1621;49.702;8.618;2023-05-07T07:17:36;6.50;;;3.80;;
3217;SDS011;1621;49.702;8.618;2023-05-07T07:20:03;4.73;;;3.50;;
3217;SDS011;1621;49.702;8.618;2023-05-07T07:22:31;5.23;;;3.30;;
3217;SDS011;1621;49.702;8.618;2023-05-07T07:24:57;5.13;;;3.40;;
3217;SDS011;1621;49.702;8.618;2023-05-07T07:27:23;4.20;;;3.33;;
3217;SDS011;1621;49.702;8.618;2023-05-07T07:29:49;4.80;;;3.20;;
3217;SDS011;1621;49.702;8.618;2023-05-07T07:32:16;4.20;;;2.97;;
3217;SDS011;1621;49.702;8.618;2023-05-07T07:34:42;4.43;;;2.97;;
3217;SDS011;1621;49.702;8.618;2023-05-07T07:37:08;6.40;;;3.70;;
3217;SDS011;1621;49.702;8.618;2023-05-07T07:39:36;10.03;;;3.00;;
3217;SDS011;1621;49.702;8.618;2023-05-07T07:42:02;4.43;;;3.20;;
3217;SDS011;1621;49.702;8.618;2023-05-07T07:44:29;4.63;;;3.47;;
3217;SDS011;1621;49.702;8.618;2023-05-07T07:46:55;6.33;;;4.10;;
3217;SDS011;1621;49.702;8.618;2023-05-07T07:49:21;4.90;;;3.53;;
3217;SDS011;1621;49.702;8.618;2023-05-07T07:51:48;4.83;;;3.60;;
3217;SDS011;1621;49.702;8.618;2023-05-07T07:54:14;5.10;;;3.60;;
3217;SDS011;1621;49.702;8.618;2023-05-07T07:56:41;5.60;;;3.57;;
3217;SDS011;1621;49.702;8.618;2023-05-07T07:59:08;5.37;;;3.80;;
3217;SDS011;1621;49.702;8.618;2023-05-07T08:01:34;5.23;;;3.57;;
3217;SDS011;1621;49.702;8.618;2023-05-07T08:04:00;4.17;;;3.10;;
3217;SDS011;1621;49.702;8.618;2023-05-07T08:06:28;4.97;;;3.67;;
3217;SDS011;1621;49.702;8.618;2023-05-07T08:08:54;3.97;;;3.00;;
3217;SDS011;1621;49.702;8.618;2023-05-07T08:11:21;6.93;;;4.17;;
3217;SDS011;1621;49.702;8.618;2023-05-07T08:13:48;5.17;;;3.10;;
3217;SDS011;1621;49.702;8.618;2023-05-07T08:16:15;6.50;;;3.70;;
3217;SDS011;1621;49.702;8.618;2023-05-07T08:18:41;6.63;;;4.13;;
3217;SDS011;1621;49.702;8.618;2023-05-07T08:21:07;4.10;;;3.27;;
3217;SDS011;1621;49.702;8.618;2023-05-07T08:23:34;4.20;;;3.10;;
3217;SDS011;1621;49.702;8.618;2023-05-07T08:26:00;4.87;;;3.30;;
3217;SDS011;1621;49.702;8.618;2023-05-07T08:28:26;4.00;;;3.10;;
3217;SDS011;1621;49.702;8.618;2023-05-07T08:30:54;5.53;;;3.87;;
3217;SDS011;1621;49.702;8.618;2023-05-07T08:33:21;5.03;;;3.93;;
3217;SDS011;1621;49.702;8.618;2023-05-07T08:35:47;4.50;;;3.13;;
3217;SDS011;1621;49.702;8.618;2023-05-07T08:38:14;5.40;;;3.13;;
3217;SDS011;1621;49.702;8.618;2023-05-07T08:40:40;5.40;;;3.17;;
3217;SDS011;1621;49.702;8.618;2023-05-07T08:43:06;4.07;;;2.67;;
3217;SDS011;1621;49.702;8.618;2023-05-07T08:45:33;4.70;;;2.90;;
3217;SDS011;1621;49.702;8.618;2023-05-07T08:48:02;5.40;;;3.50;;
3217;SDS011;1621;49.702;8.618;2023-05-07T08:50:29;5.80;;;2.90;;
3217;SDS011;1621;49.702;8.618;2023-05-07T08:52:55;4.37;;;2.97;;
3217;SDS011;1621;49.702;8.618;2023-05-07T08:55:22;4.73;;;3.10;;
3217;SDS011;1621;49.702;8.618;2023-05-07T08:57:49;3.87;;;2.60;;
3217;SDS011;1621;49.702;8.618;2023-05-07T09:00:15;3.00;;;2.20;;
3217;SDS011;1621;49.702;8.618;2023-05-07T09:02:42;4.53;;;2.00;;
3217;SDS011;1621;49.702;8.618;2023-05-07T09:05:09;3.77;;;2.23;;
3217;SDS011;1621;49.702;8.618;2023-05-07T09:07:36;3.47;;;2.10;;
3217;SDS011;1621;49.702;8.618;2023-05-07T09:10:02;3.90;;;2.13;;
3217;SDS011;1621;49.702;8.618;2023-05-07T09:12:29;3.87;;;2.40;;
3217;SDS011;1621;49.702;8.618;2023-05-07T09:14:55;5.23;;;2.47;;
3217;SDS011;1621;49.702;8.618;2023-05-07T09:17:21;5.30;;;2.40;;
3217;SDS011;1621;49.702;8.618;2023-05-07T09:19:47;3.07;;;2.00;;
3217;SDS011;1621;49.702;8.618;2023-05-07T09:22:15;3.20;;;2.13;;
3217;SDS011;1621;49.702;8.618;2023-05-07T09:24:43;4.73;;;2.20;;
3217;SDS011;1621;49.702;8.618;2023-05-07T09:27:13;3.43;;;2.50;;
3217;SDS011;1621;49.702;8.618;2023-05-07T09:29:39;4.43;;;2.20;;
3217;SDS011;1621;49.702;8.618;2023-05-07T09:32:06;3.10;;;2.23;;
3217;SDS011;1621;49.702;8.618;2023-05-07T09:34:32;4.53;;;2.23;;
3217;SDS011;1621;49.702;8.618;2023-05-07T09:36:59;4.83;;;2.40;;
3217;SDS011;1621;49.702;8.618;2023-05-07T09:39:26;3.70;;;1.73;;
3217;SDS011;1621;49.702;8.618;2023-05-07T09:42:04;3.03;;;1.93;;
3217;SDS011;1621;49.702;8.618;2023-05-07T09:44:31;7.13;;;2.50;;
3217;SDS011;1621;49.702;8.618;2023-05-07T09:46:57;3.10;;;2.30;;
3217;SDS011;1621;49.702;8.618;2023-05-07T09:49:26;3.30;;;2.20;;
3217;SDS011;1621;49.702;8.618;2023-05-07T09:51:54;3.50;;;2.13;;
3217;SDS011;1621;49.702;8.618;2023-05-07T09:54:21;4.77;;;2.10;;
3217;SDS011;1621;49.702;8.618;2023-05-07T09:56:49;3.20;;;2.00;;
3217;SDS011;1621;49.702;8.618;2023-05-07T09:59:16;3.40;;;2.03;;
3217;SDS011;1621;49.702;8.618;2023-05-07T10:01:43;3.00;;;2.10;;
3217;SDS011;1621;49.702;8.618;2023-05-07T10:04:09;3.20;;;2.03;;
3217;SDS011;1621;49.702;8.618;2023-05-07T10:06:36;3.40;;;2.23;;
3217;SDS011;1621;49.702;8.618;2023-05-07T10:09:03;3.43;;;1.93;;
3217;SDS011;1621;49.702;8.618;2023-05-07T10:11:31;4.53;;;2.63;;
3217;SDS011;1621;49.702;8.618;2023-05-07T10:13:59;3.93;;;2.30;;
3217;SDS011;1621;49.702;8.618;2023-05-07T10:16:27;3.93;;;2.10;;
3217;SDS011;1621;49.702;8.618;2023-05-07T10:18:53;3.77;;;2.10;;
3217;SDS011;1621;49.702;8.618;2023-05-07T10:21:20;4.73;;;2.37;;
3217;SDS011;1621;49.702;8.618;2023-05-07T10:23:48;3.63;;;2.30;;
3217;SDS011;1621;49.702;8.618;2023-05-07T10:26:15;4.10;;;2.93;;
3217;SDS011;1621;49.702;8.618;2023-05-07T10:28:50;6.73;;;2.67;;
3217;SDS011;1621;49.702;8.618;2023-05-07T10:31:26;4.23;;;2.70;;
3217;SDS011;1621;49.702;8.618;2023-05-07T10:33:56;5.60;;;2.27;;
3217;SDS011;1621;49.702;8.618;2023-05-07T10:36:23;4.53;;;2.50;;
3217;SDS011;1621;49.702;8.618;2023-05-07T10:38:50;3.60;;;2.50;;
3217;SDS011;1621;49.702;8.618;2023-05-07T10:41:16;5.90;;;2.63;;
3217;SDS011;1621;49.702;8.618;2023-05-07T10:43:44;5.33;;;2.57;;
3217;SDS011;1621;49.702;8.618;2023-05-07T10:46:11;3.20;;;2.37;;
3217;SDS011;1621;49.702;8.618;2023-05-07T10:51:20;6.17;;;2.43;;
3217;SDS011;1621;49.702;8.618;2023-05-07T10:53:47;3.87;;;2.63;;
3217;SDS011;1621;49.702;8.618;2023-05-07T10:56:26;3.90;;;2.20;;
3217;SDS011;1621;49.702;8.618;2023-05-07T10:58:55;3.70;;;2.30;;
3217;SDS011;1621;49.702;8.618;2023-05-07T11:04:12;3.43;;;2.23;;
3217;SDS011;1621;49.702;8.618;2023-05-07T11:06:40;3.80;;;2.40;;
3217;SDS011;1621;49.702;8.618;2023-05-07T11:09:07;5.50;;;2.63;;
3217;SDS011;1621;49.702;8.618;2023-05-07T11:17:05;4.27;;;2.57;;
3217;SDS011;1621;49.702;8.618;2023-05-07T11:19:48;5.50;;;2.77;;
3217;SDS011;1621;49.702;8.618;2023-05-07T11:24:57;5.27;;;3.03;;
3217;SDS011;1621;49.702;8.618;2023-05-07T11:27:25;3.70;;;2.47;;
3217;SDS011;1621;49.702;8.618;2023-05-07T11:29:51;3.40;;;2.27;;
3217;SDS011;1621;49.702;8.618;2023-05-07T11:32:21;3.53;;;2.47;;
3217;SDS011;1621;49.702;8.618;2023-05-07T11:34:50;4.30;;;2.50;;
3217;SDS011;1621;49.702;8.618;2023-05-07T11:37:17;4.50;;;2.63;;
3217;SDS011;1621;49.702;8.618;2023-05-07T11:39:43;6.27;;;3.60;;
3217;SDS011;1621;49.702;8.618;2023-05-07T11:45:04;3.90;;;2.70;;
3217;SDS011;1621;49.702;8.618;2023-05-07T11:47:30;4.87;;;2.53;;
3217;SDS011;1621;49.702;8.618;2023-05-07T11:49:57;6.97;;;3.10;;
3217;SDS011;1621;49.702;8.618;2023-05-07T11:52:27;4.90;;;2.00;;
3217;SDS011;1621;49.702;8.618;2023-05-07T11:54:54;4.07;;;2.70;;
3217;SDS011;1621;49.702;8.618;2023-05-07T11:57:21;3.70;;;2.47;;
3217;SDS011;1621;49.702;8.618;2023-05-07T11:59:48;3.40;;;2.37;;
3217;SDS011;1621;49.702;8.618;2023-05-07T12:02:16;3.20;;;2.30;;
3217;SDS011;1621;49.702;8.618;2023-05-07T12:04:43;4.00;;;2.97;;
3217;SDS011;1621;49.702;8.618;2023-05-07T12:07:11;4.83;;;2.50;;
3217;SDS011;1621;49.702;8.618;2023-05-07T12:09:37;3.20;;;1.97;;
3217;SDS011;1621;49.702;8.618;2023-05-07T12:12:03;5.13;;;2.43;;
3217;SDS011;1621;49.702;8.618;2023-05-07T12:14:30;4.10;;;2.40;;
3217;SDS011;1621;49.702;8.618;2023-05-07T12:16:57;4.67;;;2.47;;
3217;SDS011;1621;49.702;8.618;2023-05-07T12:19:25;3.60;;;2.10;;
3217;SDS011;1621;49.702;8.618;2023-05-07T12:21:51;5.43;;;2.13;;
3217;SDS011;1621;49.702;8.618;2023-05-07T12:24:18;3.50;;;2.30;;
3217;SDS011;1621;49.702;8.618;2023-05-07T12:26:44;5.40;;;2.10;;
3217;SDS011;1621;49.702;8.618;2023-05-07T12:29:10;4.50;;;1.90;;
3217;SDS011;1621;49.702;8.618;2023-05-07T12:31:39;3.27;;;1.90;;
3217;SDS011;1621;49.702;8.618;2023-05-07T12:34:06;3.00;;;2.30;;
3217;SDS011;1621;49.702;8.618;2023-05-07T12:36:40;4.23;;;1.90;;
3217;SDS011;1621;49.702;8.618;2023-05-07T12:39:06;2.90;;;2.13;;
3217;SDS011;1621;49.702;8.618;2023-05-07T12:41:35;3.63;;;2.10;;
3217;SDS011;1621;49.702;8.618;2023-05-07T12:44:03;3.23;;;2.27;;
3217;SDS011;1621;49.702;8.618;2023-05-07T12:46:30;2.67;;;1.93;;
3217;SDS011;1621;49.702;8.618;2023-05-07T12:48:56;3.53;;;2.10;;
3217;SDS011;1621;49.702;8.618;2023-05-07T12:51:22;5.43;;;2.20;;
3217;SDS011;1621;49.702;8.618;2023-05-07T12:53:50;3.03;;;1.90;;
3217;SDS011;1621;49.702;8.618;2023-05-07T12:56:16;3.30;;;2.03;;
3217;SDS011;1621;49.702;8.618;2023-05-07T12:58:42;3.73;;;1.73;;
3217;SDS011;1621;49.702;8.618;2023-05-07T13:01:08;2.90;;;1.93;;
3217;SDS011;1621;49.702;8.618;2023-05-07T13:03:39;2.80;;;2.10;;
3217;SDS011;1621;49.702;8.618;2023-05-07T13:06:06;4.10;;;2.40;;
3217;SDS011;1621;49.702;8.618;2023-05-07T13:08:33;7.83;;;2.40;;
3217;SDS011;1621;49.702;8.618;2023-05-07T13:11:01;3.87;;;2.30;;
3217;SDS011;1621;49.702;8.618;2023-05-07T13:13:28;4.20;;;2.07;;
3217;SDS011;1621;49.702;8.618;2023-05-07T13:15:54;3.10;;;2.20;;
3217;SDS011;1621;49.702;8.618;2023-05-07T13:18:20;4.00;;;2.30;;
3217;SDS011;1621;49.702;8.618;2023-05-07T13:20:47;4.10;;;2.30;;
3217;SDS011;1621;49.702;8.618;2023-05-07T13:23:13;5.30;;;2.27;;
3217;SDS011;1621;49.702;8.618;2023-05-07T13:25:39;4.20;;;2.13;;
3217;SDS011;1621;49.702;8.618;2023-05-07T13:28:07;5.30;;;2.50;;
3217;SDS011;1621;49.702;8.618;2023-05-07T13:30:33;15.07;;;2.63;;
3217;SDS011;1621;49.702;8.618;2023-05-07T13:32:59;3.77;;;2.70;;
3217;SDS011;1621;49.702;8.618;2023-05-07T13:35:26;3.33;;;2.20;;
3217;SDS011;1621;49.702;8.618;2023-05-07T13:37:52;4.60;;;2.80;;
3217;SDS011;1621;49.702;8.618;2023-05-07T13:40:19;3.67;;;2.30;;
3217;SDS011;1621;49.702;8.618;2023-05-07T13:42:45;3.80;;;2.13;;
3217;SDS011;1621;49.702;8.618;2023-05-07T13:45:13;3.50;;;2.53;;
3217;SDS011;1621;49.702;8.618;2023-05-07T13:47:39;4.27;;;2.40;;
3217;SDS011;1621;49.702;8.618;2023-05-07T13:50:06;3.40;;;2.53;;
3217;SDS011;1621;49.702;8.618;2023-05-07T13:52:33;5.53;;;2.73;;
3217;SDS011;1621;49.702;8.618;2023-05-07T13:55:00;3.07;;;2.27;;
3217;SDS011;1621;49.702;8.618;2023-05-07T13:57:26;4.27;;;2.60;;
3217;SDS011;1621;49.702;8.618;2023-05-07T13:59:52;4.20;;;3.43;;
3217;SDS011;1621;49.702;8.618;2023-05-07T14:02:20;3.63;;;2.70;;
3217;SDS011;1621;49.702;8.618;2023-05-07T14:04:46;4.30;;;2.80;;
3217;SDS011;1621;49.702;8.618;2023-05-07T14:07:12;8.50;;;2.97;;
3217;SDS011;1621;49.702;8.618;2023-05-07T14:09:38;6.03;;;2.53;;
3217;SDS011;1621;49.702;8.618;2023-05-07T14:12:05;8.63;;;3.10;;
3217;SDS011;1621;49.702;8.618;2023-05-07T14:14:31;6.60;;;2.90;;
3217;SDS011;1621;49.702;8.618;2023-05-07T14:16:57;3.70;;;2.80;;
3217;SDS011;1621;49.702;8.618;2023-05-07T14:19:25;4.23;;;3.33;;
3217;SDS011;1621;49.702;8.618;2023-05-07T14:21:51;3.73;;;3.13;;
3217;SDS011;1621;49.702;8.618;2023-05-07T14:24:17;4.00;;;3.00;;
3217;SDS011;1621;49.702;8.618;2023-05-07T14:26:44;5.37;;;3.23;;
3217;SDS011;1621;49.702;8.618;2023-05-07T14:29:10;5.57;;;3.20;;
3217;SDS011;1621;49.702;8.618;2023-05-07T14:31:36;3.97;;;3.27;;
3217;SDS011;1621;49.702;8.618;2023-05-07T14:34:03;3.80;;;2.70;;
3217;SDS011;1621;49.702;8.618;2023-05-07T14:36:30;4.53;;;2.93;;
3217;SDS011;1621;49.702;8.618;2023-05-07T14:38:57;5.67;;;3.03;;
3217;SDS011;1621;49.702;8.618;2023-05-07T14:41:24;4.60;;;2.87;;
3217;SDS011;1621;49.702;8.618;2023-05-07T14:43:50;6.53;;;3.13;;
3217;SDS011;1621;49.702;8.618;2023-05-07T14:46:17;4.00;;;2.80;;
3217;SDS011;1621;49.702;8.618;2023-05-07T14:48:43;4.13;;;3.00;;
3217;SDS011;1621;49.702;8.618;2023-05-07T14:51:10;4.93;;;3.47;;
3217;SDS011;1621;49.702;8.618;2023-05-07T14:53:38;5.40;;;3.27;;
3217;SDS011;1621;49.702;8.618;2023-05-07T14:56:04;5.63;;;3.10;;
3217;SDS011;1621;49.702;8.618;2023-05-07T14:58:30;3.60;;;2.67;;
3217;SDS011;1621;49.702;8.618;2023-05-07T15:00:57;3.60;;;3.00;;
3217;SDS011;1621;49.702;8.618;2023-05-07T15:03:23;4.70;;;3.00;;
3217;SDS011;1621;49.702;8.618;2023-05-07T15:05:50;4.80;;;3.27;;
3217;SDS011;1621;49.702;8.618;2023-05-07T15:08:16;3.17;;;2.37;;
3217;SDS011;1621;49.702;8.618;2023-05-07T15:10:44;4.57;;;3.37;;
3217;SDS011;1621;49.702;8.618;2023-05-07T15:13:11;5.97;;;4.03;;
3217;SDS011;1621;49.702;8.618;2023-05-07T15:15:37;4.83;;;3.00;;
3217;SDS011;1621;49.702;8.618;2023-05-07T15:18:04;3.53;;;2.63;;
3217;SDS011;1621;49.702;8.618;2023-05-07T15:20:30;4.33;;;2.50;;
3217;SDS011;1621;49.702;8.618;2023-05-07T15:22:57;8.17;;;3.43;;
3217;SDS011;1621;49.702;8.618;2023-05-07T15:25:23;37.63;;;3.37;;
3217;SDS011;1621;49.702;8.618;2023-05-07T15:27:51;7.70;;;2.73;;
3217;SDS011;1621;49.702;8.618;2023-05-07T15:30:17;10.83;;;3.50;;